Time,TemperatureF,DewpointF,PressureIn,WindDirection,WindDirectionDegrees,WindSpeedMPH,WindSpeedGustMPH,Humidity,HourlyPrecipIn,Conditions,Clouds,dailyrainin,SolarRadiationWatts/m^2,SoftwareType,DateUTC
2013-05-03 00:11:00,43.0,15.0,-100.00,SSE,166,0.0,3.0,32,0.00,,,0.00,0.000000,,2013-05-03 07:11:00,
2013-05-03 00:21:00,43.0,15.0,-100.00,SSE,166,0.0,3.0,32,0.00,,,0.00,0.000000,,2013-05-03 07:21:00,
2013-05-03 00:31:00,43.0,15.0,-100.00,SSE,166,0.0,3.0,32,0.00,,,0.00,0.000000,,2013-05-03 07:31:00,
2013-05-03 00:42:00,43.0,15.0,-100.00,SSE,166,0.0,3.0,32,0.00,,,0.00,0.000000,,2013-05-03 07:42:00,
2013-05-03 01:11:00,40.0,13.0,-100.00,SE,140,0.0,0.0,33,0.00,,,0.00,0.000000,,2013-05-03 08:11:00,
2013-05-03 01:21:00,40.0,13.0,-100.00,SE,140,0.0,0.0,33,0.00,,,0.00,0.000000,,2013-05-03 08:21:00,
2013-05-03 01:31:00,40.0,13.0,-100.00,SE,140,0.0,0.0,33,0.00,,,0.00,0.000000,,2013-05-03 08:31:00,
2013-05-03 02:11:00,40.0,13.0,-100.00,SE,142,0.0,4.0,33,-99.99,,,0.00,0.000000,,2013-05-03 09:11:00,
2013-05-03 02:21:00,40.0,13.0,-100.00,SE,142,0.0,4.0,33,-99.99,,,0.00,0.000000,,2013-05-03 09:21:00,
2013-05-03 02:32:00,40.0,13.0,-100.00,SE,142,0.0,4.0,33,-99.99,,,0.00,0.000000,,2013-05-03 09:32:00,
2013-05-03 02:42:00,40.0,13.0,-100.00,SE,142,0.0,4.0,33,-99.99,,,0.00,0.000000,,2013-05-03 09:42:00,
2013-05-03 03:12:00,39.0,13.0,-100.00,SE,139,0.0,4.0,34,0.00,,,0.00,0.000000,,2013-05-03 10:12:00,
2013-05-03 03:22:00,39.0,13.0,-100.00,SE,139,0.0,4.0,34,0.00,,,0.00,0.000000,,2013-05-03 10:22:00,
2013-05-03 03:32:00,39.0,13.0,-100.00,SE,139,0.0,4.0,34,0.00,,,0.00,0.000000,,2013-05-03 10:32:00,
2013-05-03 03:42:00,39.0,13.0,-100.00,SE,139,0.0,4.0,34,0.00,,,0.00,0.000000,,2013-05-03 10:42:00,
2013-05-03 04:11:00,37.0,11.0,-100.00,SE,135,0.0,0.0,34,0.00,,,0.00,0.000000,,2013-05-03 11:11:00,
2013-05-03 04:22:00,37.0,11.0,-100.00,SE,135,0.0,0.0,34,0.00,,,0.00,0.000000,,2013-05-03 11:22:00,
2013-05-03 04:31:00,37.0,11.0,-100.00,SE,135,0.0,0.0,34,0.00,,,0.00,0.000000,,2013-05-03 11:31:00,
2013-05-03 04:41:00,37.0,11.0,-100.00,SE,135,0.0,0.0,34,0.00,,,0.00,0.000000,,2013-05-03 11:41:00,
2013-05-03 05:11:00,37.0,13.0,-100.00,SSE,149,0.0,0.0,37,0.00,,,0.00,0.000000,,2013-05-03 12:11:00,
2013-05-03 05:21:00,37.0,13.0,-100.00,SSE,149,0.0,0.0,37,0.00,,,0.00,0.000000,,2013-05-03 12:21:00,
2013-05-03 05:32:00,37.0,13.0,-100.00,SSE,149,0.0,0.0,37,0.00,,,0.00,0.000000,,2013-05-03 12:32:00,
2013-05-03 05:41:00,37.0,13.0,-100.00,SSE,149,0.0,0.0,37,0.00,,,0.00,0.000000,,2013-05-03 12:41:00,
2013-05-03 06:11:00,34.0,12.0,-100.00,SSE,147,0.0,0.0,40,0.00,,,0.00,0.000000,,2013-05-03 13:11:00,
2013-05-03 06:22:00,34.0,12.0,-100.00,SSE,147,0.0,0.0,40,0.00,,,0.00,0.000000,,2013-05-03 13:22:00,
2013-05-03 06:32:00,34.0,12.0,-100.00,SSE,147,0.0,0.0,40,0.00,,,0.00,0.000000,,2013-05-03 13:32:00,
2013-05-03 06:42:00,34.0,12.0,-100.00,SSE,147,0.0,0.0,40,0.00,,,0.00,0.000000,,2013-05-03 13:42:00,
2013-05-03 07:11:00,37.0,16.0,-100.00,SE,144,0.0,0.0,41,0.00,,,0.00,12.000000,,2013-05-03 14:11:00,
2013-05-03 07:21:00,37.0,16.0,-100.00,SE,144,0.0,0.0,41,0.00,,,0.00,12.000000,,2013-05-03 14:21:00,
2013-05-03 07:32:00,37.0,16.0,-100.00,SE,144,0.0,0.0,41,0.00,,,0.00,12.000000,,2013-05-03 14:32:00,
2013-05-03 07:42:00,37.0,16.0,-100.00,SE,144,0.0,0.0,41,0.00,,,0.00,12.000000,,2013-05-03 14:42:00,
2013-05-03 08:11:00,44.0,19.0,-100.00,SE,130,0.0,4.0,36,0.00,,,0.00,51.000000,,2013-05-03 15:11:00,
2013-05-03 08:22:00,44.0,19.0,-100.00,SE,130,0.0,4.0,36,0.00,,,0.00,51.000000,,2013-05-03 15:22:00,
2013-05-03 08:32:00,44.0,19.0,-100.00,SE,130,0.0,4.0,36,0.00,,,0.00,51.000000,,2013-05-03 15:32:00,
2013-05-03 09:12:00,58.0,23.0,-100.00,SSE,151,0.0,2.0,26,-99.99,,,0.00,370.000000,,2013-05-03 16:12:00,
2013-05-03 09:22:00,58.0,23.0,-100.00,SSE,151,0.0,2.0,26,-99.99,,,0.00,370.000000,,2013-05-03 16:22:00,
2013-05-03 09:32:00,58.0,23.0,-100.00,SSE,151,0.0,2.0,26,-99.99,,,0.00,370.000000,,2013-05-03 16:32:00,
2013-05-03 09:42:00,58.0,23.0,-100.00,SSE,151,0.0,2.0,26,-99.99,,,0.00,370.000000,,2013-05-03 16:42:00,
2013-05-03 10:12:00,68.0,24.0,-100.00,NNE,21,2.0,5.0,19,0.00,,,-99.99,672.000000,,2013-05-03 17:12:00,
2013-05-03 10:22:00,68.0,24.0,-100.00,NNE,21,2.0,5.0,19,0.00,,,-99.99,672.000000,,2013-05-03 17:22:00,
2013-05-03 10:32:00,68.0,24.0,-100.00,NNE,21,2.0,5.0,19,0.00,,,-99.99,672.000000,,2013-05-03 17:32:00,
2013-05-03 10:42:00,68.0,24.0,-100.00,NNE,21,2.0,5.0,19,0.00,,,-99.99,672.000000,,2013-05-03 17:42:00,
2013-05-03 11:12:00,70.0,25.0,-100.00,WNW,288,6.0,11.0,18,0.00,,,0.00,863.000000,,2013-05-03 18:12:00,
2013-05-03 11:21:00,70.0,25.0,-100.00,WNW,288,6.0,11.0,18,0.00,,,0.00,863.000000,,2013-05-03 18:21:00,
2013-05-03 11:31:00,70.0,25.0,-100.00,WNW,288,6.0,11.0,18,0.00,,,0.00,863.000000,,2013-05-03 18:31:00,
2013-05-03 11:42:00,70.0,25.0,-100.00,WNW,288,6.0,11.0,18,0.00,,,0.00,863.000000,,2013-05-03 18:42:00,
2013-05-03 12:11:00,72.0,20.0,-100.00,North,359,6.0,13.0,14,0.00,,,0.00,1002.000000,,2013-05-03 19:11:00,
2013-05-03 12:21:00,72.0,20.0,-100.00,North,359,6.0,13.0,14,0.00,,,0.00,1002.000000,,2013-05-03 19:21:00,
2013-05-03 12:32:00,72.0,20.0,-100.00,North,359,6.0,13.0,14,0.00,,,0.00,1002.000000,,2013-05-03 19:32:00,
2013-05-03 12:41:00,72.0,20.0,-100.00,North,359,6.0,13.0,14,0.00,,,0.00,1002.000000,,2013-05-03 19:41:00,
2013-05-03 13:11:00,73.0,23.0,-100.00,NW,311,6.0,13.0,15,0.00,,,0.00,1073.000000,,2013-05-03 20:11:00,
2013-05-03 13:21:00,73.0,23.0,-100.00,NW,311,6.0,13.0,15,0.00,,,0.00,1073.000000,,2013-05-03 20:21:00,
2013-05-03 13:31:00,73.0,23.0,-100.00,NW,311,6.0,13.0,15,0.00,,,0.00,1073.000000,,2013-05-03 20:31:00,
2013-05-03 13:41:00,73.0,23.0,-100.00,NW,311,6.0,13.0,15,0.00,,,0.00,1073.000000,,2013-05-03 20:41:00,
2013-05-03 14:11:00,77.0,24.0,-100.00,NE,36,5.0,15.0,14,0.00,,,0.00,1077.000000,,2013-05-03 21:11:00,
2013-05-03 14:21:00,77.0,24.0,-100.00,NE,36,5.0,15.0,14,0.00,,,0.00,1077.000000,,2013-05-03 21:21:00,
2013-05-03 14:33:00,77.0,24.0,-100.00,NE,36,5.0,15.0,14,0.00,,,0.00,1077.000000,,2013-05-03 21:33:00,
2013-05-03 14:42:00,77.0,24.0,-100.00,NE,36,5.0,15.0,14,0.00,,,0.00,1077.000000,,2013-05-03 21:42:00,
2013-05-03 15:12:00,78.0,25.0,-100.00,NNW,345,6.0,14.0,14,0.00,,,0.00,1028.000000,,2013-05-03 22:12:00,
2013-05-03 15:22:00,78.0,25.0,-100.00,NNW,345,6.0,14.0,14,0.00,,,0.00,1028.000000,,2013-05-03 22:22:00,
2013-05-03 15:32:00,78.0,25.0,-100.00,NNW,345,6.0,14.0,14,0.00,,,0.00,1028.000000,,2013-05-03 22:32:00,
2013-05-03 15:42:00,78.0,25.0,-100.00,NNW,345,6.0,14.0,14,0.00,,,0.00,1028.000000,,2013-05-03 22:42:00,
2013-05-03 17:11:00,75.0,19.0,-100.00,NNW,342,5.0,12.0,12,-99.99,,,0.00,473.000000,,2013-05-04 00:11:00,
2013-05-03 17:41:00,75.0,19.0,-100.00,NNW,342,5.0,12.0,12,-99.99,,,0.00,473.000000,,2013-05-04 00:41:00,
2013-05-03 18:11:00,75.0,17.0,-100.00,NW,311,6.0,14.0,11,0.00,,,0.00,511.000000,,2013-05-04 01:11:00,
2013-05-03 18:21:00,75.0,17.0,-100.00,NW,311,6.0,14.0,11,0.00,,,0.00,511.000000,,2013-05-04 01:21:00,
2013-05-03 18:31:00,75.0,17.0,-100.00,NW,311,6.0,14.0,11,0.00,,,0.00,511.000000,,2013-05-04 01:31:00,
2013-05-03 18:41:00,75.0,17.0,-100.00,NW,311,6.0,14.0,11,0.00,,,0.00,511.000000,,2013-05-04 01:41:00,
2013-05-03 19:11:00,71.0,12.0,-100.00,NNE,14,7.0,15.0,10,0.00,,,0.00,287.000000,,2013-05-04 02:11:00,
2013-05-03 19:21:00,71.0,12.0,-100.00,NNE,14,7.0,15.0,10,0.00,,,0.00,287.000000,,2013-05-04 02:21:00,
2013-05-03 20:11:00,64.0,6.0,-100.00,SE,135,0.0,16.0,10,0.00,,,0.00,88.000000,,2013-05-04 03:11:00,
2013-05-03 21:12:00,58.0,9.0,-100.00,SE,140,2.0,6.0,14,0.00,,,0.00,1.000000,,2013-05-04 04:12:00,
2013-05-03 22:11:00,51.0,8.0,-100.00,SE,140,0.0,7.0,17,0.00,,,0.00,0.000000,,2013-05-04 05:11:00,
2013-05-03 23:11:00,47.0,10.0,-100.00,SE,141,0.0,3.0,22,0.00,,,0.00,0.000000,,2013-05-04 06:11:00,
2013-05-03 23:21:00,47.0,10.0,-100.00,SE,141,0.0,3.0,22,0.00,,,0.00,0.000000,,2013-05-04 06:21:00,
2013-05-03 23:41:00,47.0,10.0,-100.00,SE,141,0.0,3.0,22,0.00,,,0.00,0.000000,,2013-05-04 06:41:00,